Time;durP1;ratioP1;P1;durP2;ratioP2;P2;SDS_P1;SDS_P2;PMS_P1;PMS_P2;Temp;Humidity;BMP_temperature;BMP_pressure;BME280_temperature;BME280_humidity;BME280_pressure;Samples;Min_cycle;Max_cycle;Signal;HPM_P1;HPM_P2
2023/06/16 00:00:43;;;;;;;6.68;5.05;;;;;;;14.11;81.96;99917.97;10423765;28;20560;-70
2023/06/16 00:05:46;;;;;;;5.38;4.95;;;;;;;13.90;84.13;99919.88;10424346;28;20045;-70
2023/06/16 00:10:48;;;;;;;6.03;4.28;;;;;;;13.84;85.65;99921.00;10424018;28;20049;-70
2023/06/16 00:15:50;;;;;;;5.32;4.72;;;;;;;13.81;86.70;99910.63;10422185;28;20495;-71
2023/06/16 00:20:51;;;;;;;4.40;4.07;;;;;;;13.79;88.35;99908.94;10422559;28;20116;-69
2023/06/16 00:25:53;;;;;;;4.57;4.15;;;;;;;13.81;89.34;99904.44;10421512;28;20120;-69
2023/06/16 00:30:55;;;;;;;4.95;4.45;;;;;;;13.94;89.49;99900.28;10421862;28;20449;-71
2023/06/16 00:35:57;;;;;;;5.63;5.20;;;;;;;13.93;88.95;99903.00;10422318;28;20037;-70
2023/06/16 00:41:00;;;;;;;5.40;4.93;;;;;;;13.97;87.42;99897.50;10422411;28;20061;-70
2023/06/16 00:46:02;;;;;;;4.68;4.30;;;;;;;13.93;88.82;99900.38;10422117;28;20050;-69
2023/06/16 00:51:04;;;;;;;4.85;4.38;;;;;;;14.09;86.87;99891.63;10422375;28;20458;-71
2023/06/16 00:56:07;;;;;;;5.15;4.65;;;;;;;14.12;84.64;99894.16;10420681;28;20048;-70
2023/06/16 01:01:12;;;;;;;4.90;4.18;;;;;;;14.04;85.05;99895.44;10419331;28;20045;-70
2023/06/16 01:06:37;;;;;;;4.88;4.35;;;;;;;13.85;86.17;99887.50;10402429;28;20477;-70
2023/06/16 01:11:53;;;;;;;5.75;4.78;;;;;;;13.94;85.22;99879.16;10420694;28;20115;-70
2023/06/16 01:16:57;;;;;;;5.10;4.68;;;;;;;14.00;84.14;99878.03;10419062;28;20581;-72
2023/06/16 01:22:27;;;;;;;4.47;4.18;;;;;;;14.09;84.03;99878.44;10422126;28;20414;-69
2023/06/16 01:27:30;;;;;;;4.60;4.22;;;;;;;14.53;80.38;99862.16;10418722;28;20094;-69
2023/06/16 01:32:35;;;;;;;4.25;3.85;;;;;;;14.22;83.00;99857.53;10419287;28;20041;-70
2023/06/16 01:37:39;;;;;;;4.93;4.50;;;;;;;14.19;83.66;99851.53;10420895;28;20454;-70
2023/06/16 01:42:44;;;;;;;3.92;3.55;;;;;;;14.16;84.97;99841.97;10419323;28;20403;-70
2023/06/16 01:47:46;;;;;;;5.25;4.70;;;;;;;14.15;85.28;99853.47;10419889;28;20041;-70
2023/06/16 01:52:48;;;;;;;4.28;3.88;;;;;;;14.20;84.20;99850.59;10403038;28;20135;-70
2023/06/16 01:57:53;;;;;;;5.63;5.13;;;;;;;14.16;83.91;99851.69;10419761;28;20112;-70
2023/06/16 02:03:13;;;;;;;5.22;4.75;;;;;;;14.16;82.99;99849.88;10420066;28;20053;-70
2023/06/16 02:08:16;;;;;;;4.45;4.05;;;;;;;14.23;82.88;99853.09;10421599;28;20072;-70
2023/06/16 02:13:18;;;;;;;4.43;4.03;;;;;;;14.26;83.01;99856.44;10420393;28;20034;-70
2023/06/16 02:18:27;;;;;;;5.75;5.25;;;;;;;14.42;83.25;99853.03;10418246;28;20048;-70
2023/06/16 02:23:30;;;;;;;5.85;4.80;;;;;;;14.38;82.80;99853.16;10400993;28;20088;-70
2023/06/16 02:28:31;;;;;;;5.65;5.15;;;;;;;14.54;80.99;99848.00;10399619;28;20073;-70
2023/06/16 02:33:34;;;;;;;5.97;5.20;;;;;;;14.03;85.48;99862.88;10416901;28;20045;-70
2023/06/16 02:38:36;;;;;;;5.57;4.70;;;;;;;14.11;85.41;99863.34;10415807;28;20050;-71
2023/06/16 02:43:38;;;;;;;5.65;4.72;;;;;;;14.20;85.16;99854.09;10417258;28;20422;-70
2023/06/16 02:48:40;;;;;;;6.00;5.50;;;;;;;13.92;86.75;99857.25;10399010;28;20095;-71
2023/06/16 02:53:45;;;;;;;6.20;5.53;;;;;;;13.78;86.80;99857.06;10399473;28;20080;-70
2023/06/16 02:58:49;;;;;;;5.90;5.35;;;;;;;13.56;88.36;99847.50;10415684;28;20148;-70
2023/06/16 03:03:51;;;;;;;7.80;5.75;;;;;;;13.36;89.68;99855.47;10417421;28;20525;-70
2023/06/16 03:09:32;;;;;;;6.25;5.75;;;;;;;13.22;92.89;99855.22;10372585;28;20215;-70
2023/06/16 03:14:35;;;;;;;6.57;5.47;;;;;;;13.37;92.46;99851.94;10372964;28;20038;-71
2023/06/16 03:19:48;;;;;;;7.97;5.95;;;;;;;13.75;90.89;99858.03;10373492;28;20060;-70
2023/06/16 03:24:53;;;;;;;6.07;5.57;;;;;;;13.79;88.95;99850.84;10371952;28;20042;-70
2023/06/16 03:29:56;;;;;;;6.43;5.82;;;;;;;13.52;91.11;99858.28;10371120;28;20482;-70
2023/06/16 03:34:58;;;;;;;5.63;5.13;;;;;;;13.33;94.65;99851.22;10371284;28;20037;-70
2023/06/16 03:40:05;;;;;;;5.75;5.25;;;;;;;13.40;94.63;99857.06;10403930;28;20144;-70
2023/06/16 03:45:10;;;;;;;6.65;6.03;;;;;;;13.50;94.17;99865.41;10415410;28;20045;-71
2023/06/16 03:50:12;;;;;;;5.75;5.30;;;;;;;13.52;94.82;99877.63;10423233;28;20538;-70
2023/06/16 03:55:16;;;;;;;5.88;5.35;;;;;;;13.58;91.83;99863.25;10421993;28;20094;-70
2023/06/16 04:00:18;;;;;;;7.13;6.28;;;;;;;13.97;90.71;99873.72;10421883;28;20045;-70
2023/06/16 04:05:29;;;;;;;6.55;5.95;;;;;;;14.01;90.14;99872.66;10422141;28;20056;-70
2023/06/16 04:10:34;;;;;;;6.93;6.00;;;;;;;14.05;89.88;99878.66;10422683;28;20054;-70
2023/06/16 04:15:36;;;;;;;6.20;5.70;;;;;;;13.91;92.44;99878.47;10422024;28;20507;-70
2023/06/16 04:20:38;;;;;;;6.25;5.72;;;;;;;14.08;91.28;99887.28;10421627;28;20449;-70
2023/06/16 04:25:41;;;;;;;5.80;5.38;;;;;;;14.30;88.50;99875.66;10423593;28;20503;-70
2023/06/16 04:30:44;;;;;;;6.20;5.63;;;;;;;14.92;82.82;99886.66;10423233;28;20049;-70
2023/06/16 04:35:46;;;;;;;6.05;5.55;;;;;;;15.14;81.68;99874.88;10421376;28;20050;-70
2023/06/16 04:40:49;;;;;;;5.13;4.50;;;;;;;15.22;83.42;99866.50;10423172;28;20042;-71
2023/06/16 04:45:53;;;;;;;5.97;5.38;;;;;;;15.52;79.08;99869.28;10421905;28;20099;-71
2023/06/16 04:50:57;;;;;;;4.78;4.38;;;;;;;15.73;77.72;99863.78;10441135;28;20040;-69
2023/06/16 04:56:01;;;;;;;8.17;5.20;;;;;;;15.67;76.02;99858.81;10434800;22;20053;-70
2023/06/16 05:01:03;;;;;;;5.57;5.07;;;;;;;16.11;72.92;99862.50;10417132;28;20119;-70
2023/06/16 05:06:05;;;;;;;7.20;4.72;;;;;;;16.90;68.62;99858.75;10421091;28;20049;-69
2023/06/16 05:11:07;;;;;;;9.30;5.07;;;;;;;17.28;67.14;99856.41;10420220;28;20037;-69
2023/06/16 05:16:09;;;;;;;6.68;4.55;;;;;;;17.57;66.53;99856.34;10417434;28;20053;-70
2023/06/16 05:21:11;;;;;;;4.85;4.35;;;;;;;18.02;62.86;99854.41;10419887;28;20387;-71
2023/06/16 05:26:13;;;;;;;4.57;4.22;;;;;;;18.00;64.48;99843.84;10419007;28;20060;-71
2023/06/16 05:31:15;;;;;;;5.03;4.38;;;;;;;18.36;62.19;99847.69;10417612;28;20120;-70
2023/06/16 05:36:17;;;;;;;5.10;4.03;;;;;;;18.77;57.70;99854.69;10417301;28;20045;-70
2023/06/16 05:41:24;;;;;;;6.90;4.22;;;;;;;19.03;59.05;99845.75;10401354;28;20486;-69
2023/06/16 05:46:28;;;;;;;7.15;4.22;;;;;;;18.99;56.30;99846.06;10416659;28;20053;-69
2023/06/16 05:51:31;;;;;;;5.88;4.50;;;;;;;18.90;57.59;99855.56;10418097;28;20063;-69
2023/06/16 05:56:33;;;;;;;4.13;3.83;;;;;;;19.45;56.51;99848.19;10400655;28;20103;-69
2023/06/16 06:01:35;;;;;;;9.80;3.95;;;;;;;19.49;55.98;99853.19;10399948;28;20045;-69
2023/06/16 06:06:38;;;;;;;4.97;3.78;;;;;;;19.49;55.07;99855.84;10415839;28;20144;-69
2023/06/16 06:11:40;;;;;;;7.70;4.53;;;;;;;19.80;54.05;99848.34;10416382;28;20507;-69
2023/06/16 06:16:43;;;;;;;4.18;3.78;;;;;;;19.66;53.41;99852.00;10416024;28;20141;-69
2023/06/16 06:21:45;;;;;;;4.72;3.70;;;;;;;19.77;53.82;99853.88;10416151;28;20099;-69
2023/06/16 06:26:47;;;;;;;4.68;4.25;;;;;;;19.55;55.35;99846.56;10416056;28;20072;-69
2023/06/16 06:31:49;;;;;;;4.93;4.40;;;;;;;20.05;53.46;99855.38;10416128;28;20047;-69
2023/06/16 06:36:51;;;;;;;4.00;3.63;;;;;;;20.46;52.53;99860.31;10415142;28;20041;-69
2023/06/16 06:41:53;;;;;;;4.35;3.88;;;;;;;20.81;53.75;99862.16;10414708;28;20124;-68
2023/06/16 06:46:59;;;;;;;4.95;3.83;;;;;;;20.78;50.98;99870.38;10414947;28;20049;-69
2023/06/16 06:52:01;;;;;;;6.70;3.70;;;;;;;20.41;51.28;99873.16;10414850;28;20080;-67
2023/06/16 06:57:03;;;;;;;4.47;4.05;;;;;;;20.59;51.52;99878.97;10416231;28;20045;-68
2023/06/16 07:02:05;;;;;;;4.85;4.45;;;;;;;20.15;52.08;99878.63;10415794;28;20037;-69
2023/06/16 07:07:08;;;;;;;5.03;4.55;;;;;;;20.30;52.24;99875.75;10416504;28;20049;-68
2023/06/16 07:12:09;;;;;;;7.63;4.28;;;;;;;20.35;52.68;99878.94;10415794;28;20042;-67
2023/06/16 07:17:11;;;;;;;5.82;4.10;;;;;;;20.81;53.08;99872.84;10415735;28;20092;-69
2023/06/16 07:22:13;;;;;;;4.55;4.15;;;;;;;20.99;51.93;99882.09;10425068;28;20104;-68
2023/06/16 07:27:15;;;;;;;6.63;4.03;;;;;;;20.19;52.04;99881.91;10456277;28;20072;-68
2023/06/16 07:32:16;;;;;;;7.22;4.13;;;;;;;19.59;54.31;99885.38;10425371;28;20076;-67
2023/06/16 07:37:18;;;;;;;5.00;4.55;;;;;;;19.51;55.56;99885.06;10433665;28;20041;-68
2023/06/16 07:42:20;;;;;;;5.15;4.75;;;;;;;19.32;56.24;99882.84;10464381;28;20122;-67
2023/06/16 07:47:22;;;;;;;6.50;4.22;;;;;;;19.55;56.77;99887.41;10462525;28;20044;-67
2023/06/16 07:52:23;;;;;;;6.40;5.03;;;;;;;19.40;57.89;99883.16;10464359;28;20087;-68
2023/06/16 07:57:25;;;;;;;5.72;5.22;;;;;;;19.22;59.18;99876.47;10458875;28;20048;-68
2023/06/16 08:02:29;;;;;;;5.93;4.57;;;;;;;20.23;56.72;99877.19;10464710;28;20094;-68
2023/06/16 08:07:30;;;;;;;5.90;5.20;;;;;;;20.05;55.02;99880.25;10462947;28;20041;-68
2023/06/16 08:12:40;;;;;;;6.32;4.65;;;;;;;20.52;55.24;99881.22;10462774;28;20483;-69
2023/06/16 08:17:42;;;;;;;6.15;4.85;;;;;;;20.88;53.10;99874.03;10461919;28;20086;-67
2023/06/16 08:22:44;;;;;;;6.15;4.78;;;;;;;20.79;54.42;99893.44;10449761;28;20037;-68
2023/06/16 08:27:46;;;;;;;4.03;3.55;;;;;;;20.47;53.79;99888.69;10417797;28;20053;-67
2023/06/16 08:32:47;;;;;;;5.80;3.50;;;;;;;20.39;55.65;99891.94;10419633;28;20076;-67
2023/06/16 08:37:50;;;;;;;8.95;4.20;;;;;;;20.77;55.25;99890.06;10420168;28;20056;-67
2023/06/16 08:42:54;;;;;;;4.30;3.88;;;;;;;21.06;53.76;99890.47;10421134;28;20034;-68
2023/06/16 08:47:56;;;;;;;4.35;3.95;;;;;;;20.14;58.22;99886.72;10421006;28;20048;-66
2023/06/16 08:52:58;;;;;;;7.05;3.72;;;;;;;20.20;59.32;99902.28;10420388;28;20045;-68
2023/06/16 08:58:01;;;;;;;7.15;3.88;;;;;;;20.17;56.76;99908.69;10418903;28;20057;-68
2023/06/16 09:03:06;;;;;;;4.57;2.75;;;;;;;19.93;57.10;99899.84;10420294;28;20042;-69
2023/06/16 09:08:08;;;;;;;6.78;3.22;;;;;;;20.03;57.24;99905.34;10419815;28;20041;-68
2023/06/16 09:13:13;;;;;;;3.63;2.45;;;;;;;19.31;60.04;99908.66;10419208;28;20509;-69
2023/06/16 09:18:16;;;;;;;2.70;2.50;;;;;;;19.73;59.21;99914.59;10420181;28;20056;-68
2023/06/16 09:23:28;;;;;;;7.57;2.72;;;;;;;19.81;59.00;99914.06;10419311;28;20060;-68
2023/06/16 09:28:34;;;;;;;5.40;3.22;;;;;;;19.20;67.57;99923.66;10419686;28;20060;-68
2023/06/16 09:33:36;;;;;;;4.93;3.03;;;;;;;19.18;67.11;99928.28;10418861;28;20069;-68
2023/06/16 09:38:38;;;;;;;4.80;2.75;;;;;;;18.67;69.53;99923.66;10418614;28;20112;-68
2023/06/16 09:43:41;;;;;;;2.95;2.72;;;;;;;18.84;69.95;99915.44;10418575;28;20049;-68
2023/06/16 09:48:48;;;;;;;2.58;2.38;;;;;;;18.72;68.74;99920.72;10416856;28;20124;-68
2023/06/16 09:53:50;;;;;;;2.65;2.45;;;;;;;18.74;67.75;99913.50;10417239;28;20099;-69
2023/06/16 09:58:52;;;;;;;2.58;2.38;;;;;;;19.00;66.21;99906.41;10416540;28;20411;-68
2023/06/16 10:03:54;;;;;;;3.97;2.42;;;;;;;18.77;66.31;99916.81;10417559;28;20381;-68
2023/06/16 10:08:58;;;;;;;6.50;2.42;;;;;;;18.28;68.21;99922.72;10417275;28;20145;-69
2023/06/16 10:14:04;;;;;;;3.63;2.75;;;;;;;18.50;68.96;99906.16;10417761;28;20454;-68
2023/06/16 10:19:07;;;;;;;2.30;2.10;;;;;;;19.10;66.56;99903.00;10415391;28;20132;-69
2023/06/16 10:24:09;;;;;;;3.00;2.78;;;;;;;18.93;66.54;99908.63;10417678;28;20283;-68
2023/06/16 10:29:16;;;;;;;2.55;2.20;;;;;;;18.17;70.00;99911.06;10416534;28;20068;-68
2023/06/16 10:34:19;;;;;;;3.30;2.65;;;;;;;18.49;69.73;99924.91;10418126;28;20037;-67
2023/06/16 10:39:21;;;;;;;3.15;2.85;;;;;;;18.74;67.77;99921.50;10417031;28;20084;-68
2023/06/16 10:44:28;;;;;;;3.05;2.80;;;;;;;18.82;66.30;99924.50;10416946;28;20041;-69
2023/06/16 10:49:30;;;;;;;5.03;2.85;;;;;;;19.02;68.07;99918.66;10416726;28;20511;-68
2023/06/16 10:54:31;;;;;;;3.38;2.65;;;;;;;18.41;69.75;99931.56;10428966;22;20047;-71
2023/06/16 11:00:11;;;;;;;2.97;2.78;;;;;;;18.01;71.04;99943.94;10420340;28;20137;-72
2023/06/16 11:05:14;;;;;;;4.00;3.22;;;;;;;17.72;74.78;99939.59;10423722;28;20061;-70
2023/06/16 11:10:18;;;;;;;5.00;3.72;;;;;;;17.50;79.35;99940.94;10422943;28;20107;-70
2023/06/16 11:15:20;;;;;;;7.43;4.15;;;;;;;16.92;84.95;99940.97;10423257;28;20037;-70
2023/06/16 11:20:22;;;;;;;5.07;3.80;;;;;;;16.91;83.69;99945.44;10422448;28;20470;-70
2023/06/16 11:25:25;;;;;;;4.70;4.30;;;;;;;16.82;87.07;99946.81;10422186;28;20513;-69
2023/06/16 11:30:28;;;;;;;4.90;4.50;;;;;;;16.73;89.43;99949.13;10422491;28;20056;-69
2023/06/16 11:35:33;;;;;;;4.65;4.25;;;;;;;16.29;95.91;99952.53;10421762;28;20120;-69
2023/06/16 11:40:35;;;;;;;4.15;3.80;;;;;;;16.43;93.17;99957.91;10420797;28;20121;-72
2023/06/16 11:45:37;;;;;;;4.95;4.10;;;;;;;16.43;94.95;99959.72;10421481;28;20046;-72
2023/06/16 11:50:40;;;;;;;3.65;3.35;;;;;;;16.50;91.50;99953.94;10421754;28;20049;-71
2023/06/16 11:55:49;;;;;;;4.63;3.05;;;;;;;16.30;93.48;99954.25;10420816;28;20116;-71
2023/06/16 12:00:51;;;;;;;4.03;2.95;;;;;;;16.67;92.72;99954.78;10420935;28;20133;-71
2023/06/16 12:05:53;;;;;;;4.72;2.60;;;;;;;16.73;90.49;99952.66;10421179;28;20140;-71
2023/06/16 12:10:55;;;;;;;2.92;2.72;;;;;;;16.76;92.23;99954.28;10421620;28;20041;-71
2023/06/16 12:15:57;;;;;;;3.53;3.13;;;;;;;16.63;90.93;99954.94;10420247;28;20207;-73
2023/06/16 12:21:18;;;;;;;3.33;2.95;;;;;;;16.47;91.93;99946.19;10420317;28;20065;-73
2023/06/16 12:26:35;;;;;;;3.45;2.60;;;;;;;16.45;93.76;99949.88;10419727;28;20037;-72
2023/06/16 12:31:52;;;;;;;4.40;3.45;;;;;;;16.82;92.10;99944.19;10420577;28;20041;-73
2023/06/16 12:36:54;;;;;;;3.10;2.80;;;;;;;17.57;85.94;99944.06;10420216;28;20053;-72
2023/06/16 12:42:01;;;;;;;2.65;2.33;;;;;;;17.96;83.78;99943.38;10418277;28;20033;-72
2023/06/16 12:47:03;;;;;;;2.30;2.10;;;;;;;18.11;83.17;99933.59;10419300;28;20052;-73
2023/06/16 12:52:06;;;;;;;3.13;2.53;;;;;;;18.24;80.91;99930.97;10418015;28;20124;-75
2023/06/16 12:57:08;;;;;;;2.83;2.30;;;;;;;18.20;79.41;99933.00;10418468;28;20049;-74
2023/06/16 13:02:11;;;;;;;2.47;2.28;;;;;;;18.11;81.92;99945.09;10418504;28;20073;-74
2023/06/16 13:07:13;;;;;;;2.78;2.45;;;;;;;18.16;77.84;99939.47;10418361;28;20391;-75
2023/06/16 13:12:15;;;;;;;3.72;2.90;;;;;;;17.86;82.99;99943.13;10418011;28;20038;-73
2023/06/16 13:17:16;;;;;;;4.20;3.88;;;;;;;17.41;90.77;99949.47;10419447;28;20056;-72
2023/06/16 13:22:18;;;;;;;4.03;3.72;;;;;;;17.14;96.21;99952.00;10416581;28;20050;-72
2023/06/16 13:27:20;;;;;;;3.92;3.63;;;;;;;16.81;100.00;99946.91;10418434;28;20049;-72
2023/06/16 13:32:22;;;;;;;4.68;4.25;;;;;;;16.60;100.00;99952.50;10417284;28;20060;-72
2023/06/16 13:37:23;;;;;;;4.80;4.40;;;;;;;16.69;100.00;99936.97;10417041;28;20045;-73
2023/06/16 13:42:25;;;;;;;4.47;4.07;;;;;;;16.77;100.00;99945.38;10418050;28;20088;-73
2023/06/16 13:47:27;;;;;;;5.30;4.90;;;;;;;16.97;100.00;99937.09;10416831;28;20045;-73
2023/06/16 13:52:29;;;;;;;5.13;4.63;;;;;;;17.33;100.00;99938.47;10417245;28;20076;-74
2023/06/16 13:57:31;;;;;;;4.82;4.43;;;;;;;17.94;100.00;99929.34;10416827;28;20041;-74
2023/06/16 14:02:33;;;;;;;5.05;4.63;;;;;;;18.09;96.47;99924.84;10416358;28;20046;-73
2023/06/16 14:07:35;;;;;;;4.65;4.25;;;;;;;18.42;93.61;99927.13;10416293;28;20041;-72
2023/06/16 14:12:37;;;;;;;5.57;5.03;;;;;;;18.34;91.55;99926.78;10416475;28;20038;-72
2023/06/16 14:17:40;;;;;;;5.53;5.15;;;;;;;17.82;97.51;99941.59;10416567;28;20064;-72
2023/06/16 14:22:42;;;;;;;5.60;5.20;;;;;;;17.01;100.00;99945.72;10415620;28;20549;-73
2023/06/16 14:27:44;;;;;;;7.38;5.78;;;;;;;16.57;100.00;99952.66;10415321;28;20046;-70
2023/06/16 14:32:46;;;;;;;5.85;5.45;;;;;;;16.28;100.00;99946.38;10414916;28;20076;-71
2023/06/16 14:37:48;;;;;;;7.28;6.68;;;;;;;16.02;100.00;99949.63;10414992;28;20038;-70
2023/06/16 14:42:49;;;;;;;6.10;5.60;;;;;;;15.91;100.00;99934.31;10414787;28;20124;-70
2023/06/16 14:47:51;;;;;;;6.10;5.60;;;;;;;15.93;100.00;99928.94;10414576;28;20041;-70
2023/06/16 14:52:53;;;;;;;5.68;5.15;;;;;;;16.01;100.00;99921.41;10415417;28;20052;-70
2023/06/16 14:57:55;;;;;;;6.07;5.68;;;;;;;16.05;100.00;99918.50;10414498;28;20545;-70
2023/06/16 15:02:57;;;;;;;6.57;6.07;;;;;;;16.13;100.00;99912.78;10414457;28;20041;-70
2023/06/16 15:07:59;;;;;;;6.95;5.38;;;;;;;16.44;100.00;99903.91;10414167;28;20052;-69
2023/06/16 15:13:00;;;;;;;8.13;7.32;;;;;;;16.41;100.00;99898.78;10412900;28;20051;-69
2023/06/16 15:18:03;;;;;;;6.63;6.13;;;;;;;16.21;100.00;99891.13;10414644;28;20052;-70
2023/06/16 15:23:04;;;;;;;6.45;5.95;;;;;;;16.00;100.00;99901.16;10412693;28;20422;-70
2023/06/16 15:28:06;;;;;;;6.53;5.97;;;;;;;15.99;100.00;99892.34;10412648;28;20045;-70
2023/06/16 15:33:14;;;;;;;7.15;6.60;;;;;;;15.91;100.00;99888.41;10413919;28;20072;-71
2023/06/16 15:38:16;;;;;;;6.88;6.20;;;;;;;16.05;100.00;99885.81;10413787;28;20555;-70
2023/06/16 15:43:17;;;;;;;6.68;6.18;;;;;;;16.53;100.00;99879.50;10415754;28;20112;-70
2023/06/16 15:48:19;;;;;;;7.30;6.70;;;;;;;16.51;100.00;99870.78;10421206;28;20066;-70
2023/06/16 15:53:21;;;;;;;7.72;6.68;;;;;;;16.95;100.00;99866.41;10420792;28;20116;-71
2023/06/16 15:58:23;;;;;;;6.55;6.07;;;;;;;17.05;100.00;99871.09;10421505;28;20072;-71
2023/06/16 16:03:24;;;;;;;7.10;6.53;;;;;;;17.03;100.00;99875.63;10420542;28;20037;-71
2023/06/16 16:08:26;;;;;;;5.95;5.13;;;;;;;16.79;100.00;99867.38;10420433;28;20045;-71
2023/06/16 16:13:30;;;;;;;6.00;5.60;;;;;;;16.57;100.00;99875.72;10420887;28;20049;-71
2023/06/16 16:18:32;;;;;;;6.38;5.85;;;;;;;16.71;100.00;99882.00;10420657;28;20071;-71
2023/06/16 16:23:34;;;;;;;5.30;4.80;;;;;;;16.75;100.00;99876.44;10419962;28;20422;-71
2023/06/16 16:28:36;;;;;;;5.68;5.18;;;;;;;16.80;100.00;99877.03;10419969;28;20037;-71
2023/06/16 16:33:38;;;;;;;5.50;5.00;;;;;;;16.60;100.00;99886.16;10418601;28;20483;-70
2023/06/16 16:38:40;;;;;;;5.32;4.90;;;;;;;16.55;100.00;99880.25;10419488;28;20069;-70
2023/06/16 16:43:42;;;;;;;4.55;4.15;;;;;;;16.55;100.00;99882.91;10419452;28;20487;-70
2023/06/16 16:48:44;;;;;;;5.18;4.80;;;;;;;16.32;100.00;99870.13;10419311;28;20068;-70
2023/06/16 16:53:46;;;;;;;4.85;4.50;;;;;;;16.28;100.00;99876.56;10433559;22;20049;-69
2023/06/16 16:58:47;;;;;;;5.05;4.68;;;;;;;16.23;100.00;99871.50;10437026;28;20096;-69
2023/06/16 17:03:49;;;;;;;4.85;4.45;;;;;;;16.24;100.00;99881.16;10423826;28;20037;-68
2023/06/16 17:08:51;;;;;;;5.18;4.78;;;;;;;16.35;100.00;99880.56;10419277;28;20045;-69
2023/06/16 17:13:53;;;;;;;5.95;4.63;;;;;;;16.31;100.00;99871.06;10419504;28;20034;-68
2023/06/16 17:18:55;;;;;;;4.95;4.65;;;;;;;16.33;100.00;99877.13;10422680;28;20049;-68
2023/06/16 17:23:57;;;;;;;4.97;4.60;;;;;;;16.47;100.00;99879.88;10420701;28;20475;-69
2023/06/16 17:28:59;;;;;;;5.88;5.30;;;;;;;16.61;100.00;99874.59;10419619;28;20518;-68
2023/06/16 17:34:02;;;;;;;4.95;4.55;;;;;;;16.69;100.00;99871.50;10419875;28;20065;-69
2023/06/16 17:39:04;;;;;;;6.20;5.72;;;;;;;16.68;100.00;99874.22;10420698;28;20418;-68
2023/06/16 17:44:06;;;;;;;6.55;5.90;;;;;;;16.63;100.00;99869.19;10420619;28;20081;-68
2023/06/16 17:49:08;;;;;;;6.05;5.50;;;;;;;16.70;100.00;99869.69;10420059;28;20095;-69
2023/06/16 17:54:11;;;;;;;5.80;5.40;;;;;;;16.84;100.00;99867.09;10418435;28;20478;-67
2023/06/16 17:59:13;;;;;;;6.00;5.50;;;;;;;16.89;100.00;99860.53;10420934;28;20096;-69
2023/06/16 18:04:16;;;;;;;6.03;5.60;;;;;;;16.79;100.00;99863.84;10418748;28;20501;-69
2023/06/16 18:09:18;;;;;;;5.70;5.30;;;;;;;16.84;100.00;99864.44;10417729;28;20041;-68
2023/06/16 18:14:20;;;;;;;5.95;5.55;;;;;;;16.80;100.00;99865.56;10417297;28;20045;-68
2023/06/16 18:19:22;;;;;;;6.10;5.70;;;;;;;16.73;100.00;99856.25;10416934;28;20441;-68
2023/06/16 18:24:26;;;;;;;6.03;5.63;;;;;;;16.80;100.00;99861.09;10422921;28;20437;-69
2023/06/16 18:29:28;;;;;;;6.40;6.00;;;;;;;16.80;100.00;99854.94;10417176;28;20147;-69
2023/06/16 18:34:30;;;;;;;6.00;5.50;;;;;;;16.84;100.00;99857.31;10416113;28;20065;-68
2023/06/16 18:39:33;;;;;;;7.18;6.68;;;;;;;16.62;100.00;99860.38;10415868;28;20045;-68
2023/06/16 18:44:35;;;;;;;5.93;5.40;;;;;;;16.64;100.00;99854.97;10420139;28;20042;-68
2023/06/16 18:49:37;;;;;;;6.78;6.18;;;;;;;16.61;100.00;99849.84;10415449;28;20042;-69
2023/06/16 18:54:40;;;;;;;6.65;6.05;;;;;;;16.50;100.00;99846.97;10416887;28;20037;-68
2023/06/16 18:59:47;;;;;;;6.25;5.75;;;;;;;16.22;100.00;99845.09;10416080;28;20561;-69
2023/06/16 19:04:49;;;;;;;7.15;6.60;;;;;;;15.80;100.00;99843.94;10420440;28;20044;-69
2023/06/16 19:09:51;;;;;;;8.07;7.50;;;;;;;15.58;100.00;99842.47;10419588;28;20072;-68
2023/06/16 19:14:53;;;;;;;6.53;6.03;;;;;;;15.61;100.00;99839.63;10419869;28;20038;-69
2023/06/16 19:19:55;;;;;;;6.90;6.25;;;;;;;15.80;100.00;99844.78;10419399;28;20488;-69
2023/06/16 19:24:56;;;;;;;9.73;6.38;;;;;;;15.52;100.00;99845.44;10424928;28;20044;-68
2023/06/16 19:29:58;;;;;;;6.43;5.93;;;;;;;15.42;100.00;99854.00;10425600;28;20053;-69
2023/06/16 19:35:00;;;;;;;5.43;4.93;;;;;;;15.44;100.00;99852.09;10425023;28;20041;-68
2023/06/16 19:40:07;;;;;;;5.85;5.35;;;;;;;15.41;100.00;99849.66;10424796;28;20057;-69
2023/06/16 19:45:10;;;;;;;4.90;4.40;;;;;;;15.35;100.00;99846.34;10432862;28;20053;-69
2023/06/16 19:50:11;;;;;;;6.18;5.68;;;;;;;15.05;100.00;99848.00;10460890;28;20095;-68
2023/06/16 19:55:13;;;;;;;6.90;5.70;;;;;;;15.08;100.00;99847.84;10424105;28;20498;-68
2023/06/16 20:00:15;;;;;;;6.18;5.68;;;;;;;14.97;100.00;99839.66;10423514;28;20068;-68
2023/06/16 20:05:21;;;;;;;6.65;5.15;;;;;;;14.92;100.00;99836.34;10423387;28;20121;-69
2023/06/16 20:10:24;;;;;;;6.17;5.77;;;;;;;14.82;100.00;99844.78;10425243;28;20041;-69
2023/06/16 20:15:26;;;;;;;6.00;5.55;;;;;;;14.77;100.00;99830.09;10424173;28;20318;-69
2023/06/16 20:20:28;;;;;;;5.88;5.45;;;;;;;14.63;100.00;99829.00;10423825;28;20049;-68
2023/06/16 20:25:30;;;;;;;6.20;5.50;;;;;;;14.47;100.00;99830.69;10422498;28;20053;-67
2023/06/16 20:30:32;;;;;;;5.82;5.43;;;;;;;14.28;100.00;99817.56;10422760;28;20053;-69
2023/06/16 20:35:34;;;;;;;6.20;5.80;;;;;;;14.05;100.00;99821.34;10423521;28;20045;-68
2023/06/16 20:40:36;;;;;;;7.15;6.75;;;;;;;13.92;100.00;99819.41;10422631;28;20491;-68
2023/06/16 20:45:38;;;;;;;7.00;6.60;;;;;;;13.86;100.00;99824.06;10422178;28;20038;-69
2023/06/16 20:50:40;;;;;;;7.32;6.75;;;;;;;13.83;100.00;99825.97;10420701;28;20518;-70
2023/06/16 20:55:42;;;;;;;7.35;6.65;;;;;;;13.80;100.00;99818.19;10423083;28;20133;-70
2023/06/16 21:00:44;;;;;;;7.68;7.13;;;;;;;13.69;100.00;99821.38;10421738;28;20049;-68
2023/06/16 21:05:48;;;;;;;8.70;8.10;;;;;;;13.72;100.00;99823.84;10420473;28;20430;-69
2023/06/16 21:10:50;;;;;;;8.32;7.65;;;;;;;13.62;100.00;99814.66;10421104;28;20128;-71
2023/06/16 21:16:00;;;;;;;8.45;7.85;;;;;;;13.78;100.00;99820.06;10421354;28;20041;-69
2023/06/16 21:21:02;;;;;;;8.02;7.45;;;;;;;13.73;100.00;99817.66;10422297;28;20045;-68
2023/06/16 21:26:04;;;;;;;8.43;7.90;;;;;;;13.87;100.00;99809.91;10420369;28;20033;-70
2023/06/16 21:31:06;;;;;;;7.68;7.18;;;;;;;13.62;100.00;99810.22;10420104;28;20569;-68
2023/06/16 21:36:08;;;;;;;7.97;7.43;;;;;;;13.47;100.00;99800.41;10418365;28;20125;-69
2023/06/16 21:41:10;;;;;;;8.18;7.63;;;;;;;13.38;100.00;99788.50;10419910;28;20083;-69
2023/06/16 21:46:12;;;;;;;11.07;10.18;;;;;;;13.30;100.00;99789.78;10418618;28;20041;-70
2023/06/16 21:51:14;;;;;;;10.07;9.43;;;;;;;13.29;100.00;99791.56;10419084;28;20048;-69
2023/06/16 21:56:17;;;;;;;10.95;9.95;;;;;;;13.25;100.00;99787.34;10419229;28;20462;-69
2023/06/16 22:01:19;;;;;;;9.95;9.25;;;;;;;13.32;100.00;99787.91;10420526;28;20037;-68
2023/06/16 22:06:21;;;;;;;10.65;9.70;;;;;;;13.24;100.00;99793.56;10419129;28;20495;-69
2023/06/16 22:11:23;;;;;;;10.10;9.50;;;;;;;13.11;100.00;99790.59;10419180;28;20406;-69
2023/06/16 22:16:25;;;;;;;10.20;9.48;;;;;;;13.04;100.00;99802.34;10419237;28;20037;-69
2023/06/16 22:21:27;;;;;;;11.23;10.43;;;;;;;13.09;100.00;99791.59;10417928;28;20041;-69
2023/06/16 22:26:28;;;;;;;10.70;9.90;;;;;;;13.10;100.00;99790.66;10420252;28;20103;-69
2023/06/16 22:31:30;;;;;;;10.65;9.95;;;;;;;13.03;100.00;99787.47;10417171;28;20388;-68
2023/06/16 22:36:32;;;;;;;10.25;9.20;;;;;;;13.19;100.00;99789.38;10417313;28;20395;-69
2023/06/16 22:41:34;;;;;;;8.70;7.85;;;;;;;13.18;100.00;99777.13;10415985;28;20050;-68
2023/06/16 22:46:36;;;;;;;8.73;7.00;;;;;;;13.37;100.00;99778.00;10419209;28;20069;-68
2023/06/16 22:51:38;;;;;;;6.10;5.68;;;;;;;13.28;100.00;99781.06;10416307;28;20056;-68
2023/06/16 22:56:40;;;;;;;5.60;5.20;;;;;;;13.73;100.00;99780.66;10429260;23;20405;-69
2023/06/16 23:01:42;;;;;;;5.15;4.68;;;;;;;13.92;100.00;99785.91;10414784;28;20041;-69
2023/06/16 23:06:45;;;;;;;5.13;4.82;;;;;;;13.88;100.00;99801.03;10415169;28;20049;-71
2023/06/16 23:11:47;;;;;;;5.15;4.75;;;;;;;14.00;100.00;99799.59;10413468;28;20130;-70
2023/06/16 23:16:48;;;;;;;4.80;4.38;;;;;;;14.57;100.00;99796.75;10414426;28;20068;-69
2023/06/16 23:21:53;;;;;;;5.75;4.45;;;;;;;14.84;100.00;99795.28;10413175;28;20053;-70